РПИ Бишкек

Руководство

Evgeny Vygornitsky*

Куратор
Инструкторы РПИ
Evgeny Vygornitsky (Supervisor)
Входит в состав
Центральная Азия

Диспетчеры РПИ

Диспетчер Рейтинг Допуски *

Аэропорты РПИ

ICAO Город Название Погода
UCFM Бишкек Манас UCFM 221230Z 24005MPS 9999 FEW066CB 24/10 Q1014 NOSIG
UCFL Иссык-Куль Иссык-Куль UCFL 221200Z VRB01MPS 9999 SCT030CB 17/01 Q1017
UCFP Каракол Каракол